createdAt,value
2023-03-16T00:00:08.588Z,0.21
2023-03-16T00:01:08.556Z,0.19
2023-03-16T00:02:08.615Z,0.21
2023-03-16T00:03:08.591Z,0.15
2023-03-16T00:04:08.538Z,0.15
2023-03-16T00:05:08.511Z,0.08
2023-03-16T00:06:08.524Z,0.08
2023-03-16T00:07:08.489Z,0.10
2023-03-16T00:08:08.480Z,0.11
2023-03-16T00:09:08.459Z,0.11
2023-03-16T00:10:08.481Z,0.01
2023-03-16T00:11:08.459Z,-0.03
2023-03-16T00:12:08.427Z,-0.13
2023-03-16T00:13:08.405Z,-0.17
2023-03-16T00:14:08.405Z,-0.03
2023-03-16T00:15:08.387Z,-0.07
2023-03-16T00:16:08.408Z,-0.10
2023-03-16T00:17:08.354Z,-0.15
2023-03-16T00:18:08.344Z,-0.15
2023-03-16T00:19:08.334Z,-0.11
2023-03-16T00:20:08.328Z,-0.14
2023-03-16T00:21:08.301Z,-0.10
2023-03-16T00:22:08.301Z,-0.13
2023-03-16T00:23:08.283Z,-0.13
2023-03-16T00:24:08.280Z,-0.03
2023-03-16T00:25:08.271Z,0.00
2023-03-16T00:26:08.274Z,0.03
2023-03-16T00:27:08.253Z,0.05
2023-03-16T00:28:08.230Z,0.11
2023-03-16T00:29:08.200Z,0.21
2023-03-16T00:30:08.194Z,0.10
2023-03-16T00:31:08.183Z,0.07
2023-03-16T00:32:08.169Z,-0.03
2023-03-16T00:33:08.299Z,-0.10
2023-03-16T00:34:08.142Z,-0.14
2023-03-16T00:35:09.513Z,-0.23
2023-03-16T00:36:08.263Z,-0.20
2023-03-16T00:37:08.147Z,-0.28
2023-03-16T00:38:08.092Z,-0.21
2023-03-16T00:39:08.067Z,-0.17
2023-03-16T00:40:08.086Z,-0.20
2023-03-16T00:41:08.050Z,-0.20
2023-03-16T00:42:08.023Z,-0.17
2023-03-16T00:43:08.038Z,-0.11
2023-03-16T00:44:08.013Z,-0.07
2023-03-16T00:45:07.996Z,-0.07
2023-03-16T00:46:08.088Z,-0.08
2023-03-16T00:47:07.972Z,-0.13
2023-03-16T00:48:07.975Z,-0.14
2023-03-16T00:49:07.938Z,-0.11
2023-03-16T00:50:07.941Z,-0.15
2023-03-16T00:51:07.949Z,-0.18
2023-03-16T00:52:07.921Z,-0.25
2023-03-16T00:53:07.886Z,-0.29
2023-03-16T00:54:07.877Z,-0.28
2023-03-16T00:55:07.856Z,-0.28
2023-03-16T00:56:07.853Z,-0.31
2023-03-16T00:57:07.833Z,-0.25
2023-03-16T00:58:07.830Z,-0.21
2023-03-16T00:59:07.836Z,-0.23
2023-03-16T01:00:07.809Z,-0.21
2023-03-16T01:01:07.919Z,-0.23
2023-03-16T01:02:07.770Z,-0.23
2023-03-16T01:03:07.862Z,-0.32
2023-03-16T01:04:07.747Z,-0.34
2023-03-16T01:05:07.743Z,-0.38
2023-03-16T01:06:07.740Z,-0.35
2023-03-16T01:07:07.732Z,-0.28
2023-03-16T01:08:07.711Z,-0.34
2023-03-16T01:09:07.680Z,-0.35
2023-03-16T01:10:07.679Z,-0.36
2023-03-16T01:11:07.663Z,-0.32
2023-03-16T01:12:07.673Z,-0.31
2023-03-16T01:13:07.639Z,-0.41
2023-03-16T01:14:07.623Z,-0.41
2023-03-16T01:15:07.636Z,-0.46
2023-03-16T01:16:07.595Z,-0.44
2023-03-16T01:17:07.607Z,-0.41
2023-03-16T01:18:07.580Z,-0.46
2023-03-16T01:19:07.567Z,-0.49
2023-03-16T01:20:07.552Z,-0.50
2023-03-16T01:21:07.540Z,-0.53
2023-03-16T01:22:07.516Z,-0.54
2023-03-16T01:23:07.513Z,-0.57
2023-03-16T01:24:07.492Z,-0.64
2023-03-16T01:25:07.491Z,-0.53
2023-03-16T01:26:07.478Z,-0.54
2023-03-16T01:27:07.467Z,-0.56
2023-03-16T01:28:07.447Z,-0.47
2023-03-16T01:29:07.433Z,-0.52
2023-03-16T01:30:07.420Z,-0.53
2023-03-16T01:31:07.537Z,-0.57
2023-03-16T01:32:07.405Z,-0.54
2023-03-16T01:33:07.546Z,-0.52
2023-03-16T01:34:07.368Z,-0.56
2023-03-16T01:35:07.363Z,-0.52
2023-03-16T01:36:07.402Z,-0.47
2023-03-16T01:37:07.328Z,-0.49
2023-03-16T01:38:07.323Z,-0.49
2023-03-16T01:39:07.308Z,-0.53
2023-03-16T01:40:07.289Z,-0.61
2023-03-16T01:41:07.271Z,-0.67
2023-03-16T01:42:07.270Z,-0.71
2023-03-16T01:43:07.245Z,-0.72
2023-03-16T01:44:07.233Z,-0.74
2023-03-16T01:45:07.225Z,-0.77
2023-03-16T01:46:07.344Z,-0.80
2023-03-16T01:47:07.218Z,-0.74
2023-03-16T01:48:07.190Z,-0.74
2023-03-16T01:49:07.173Z,-0.68
2023-03-16T01:50:07.157Z,-0.74
2023-03-16T01:51:07.139Z,-0.78
2023-03-16T01:52:07.155Z,-0.82
2023-03-16T01:53:07.123Z,-0.89
2023-03-16T01:54:07.104Z,-0.91
2023-03-16T01:55:07.096Z,-0.94
2023-03-16T01:56:07.079Z,-0.91
2023-03-16T01:57:07.071Z,-0.86
2023-03-16T01:58:07.059Z,-0.89
2023-03-16T01:59:07.060Z,-0.77
2023-03-16T02:00:07.029Z,-0.75
2023-03-16T02:01:07.137Z,-0.71
2023-03-16T02:02:07.004Z,-0.67
2023-03-16T02:03:07.018Z,-0.64
2023-03-16T02:04:07.038Z,-0.59
2023-03-16T02:05:06.965Z,-0.52
2023-03-16T02:06:06.967Z,-0.53
2023-03-16T02:07:06.939Z,-0.49
2023-03-16T02:08:06.922Z,-0.50
2023-03-16T02:09:06.931Z,-0.54
2023-03-16T02:10:06.907Z,-0.59
2023-03-16T02:11:06.889Z,-0.62
2023-03-16T02:12:06.881Z,-0.67
2023-03-16T02:13:06.856Z,-0.67
2023-03-16T02:14:06.861Z,-0.72
2023-03-16T02:15:06.839Z,-0.71
2023-03-16T02:16:06.878Z,-0.70
2023-03-16T02:17:06.813Z,-0.71
2023-03-16T02:18:06.804Z,-0.65
2023-03-16T02:19:06.817Z,-0.71
2023-03-16T02:20:06.776Z,-0.71
2023-03-16T02:21:06.765Z,-0.70
2023-03-16T02:22:06.741Z,-0.78
2023-03-16T02:23:06.725Z,-0.85
2023-03-16T02:24:06.716Z,-0.80
2023-03-16T02:25:06.700Z,-0.82
2023-03-16T02:26:06.690Z,-0.78
2023-03-16T02:27:06.676Z,-0.82
2023-03-16T02:28:06.663Z,-0.96
2023-03-16T02:29:06.649Z,-1.01
2023-03-16T02:30:06.642Z,-0.96
2023-03-16T02:31:06.676Z,-0.96
2023-03-16T02:32:06.620Z,-1.01
2023-03-16T02:33:06.659Z,-0.93
2023-03-16T02:34:06.583Z,-0.85
2023-03-16T02:35:06.605Z,-0.80
2023-03-16T02:36:06.624Z,-0.80
2023-03-16T02:37:06.545Z,-0.85
2023-03-16T02:38:06.530Z,-0.82
2023-03-16T02:39:06.537Z,-0.83
2023-03-16T02:40:06.515Z,-0.82
2023-03-16T02:41:06.501Z,-0.80
2023-03-16T02:42:06.478Z,-0.86
2023-03-16T02:43:06.477Z,-0.89
2023-03-16T02:44:06.461Z,-0.83
2023-03-16T02:45:06.447Z,-0.90
2023-03-16T02:46:06.528Z,-0.83
2023-03-16T02:47:06.414Z,-0.78
2023-03-16T02:48:06.410Z,-0.78
2023-03-16T02:49:06.406Z,-0.80
2023-03-16T02:50:06.392Z,-0.82
2023-03-16T02:51:06.390Z,-0.90
2023-03-16T02:52:06.372Z,-0.94
2023-03-16T02:53:06.345Z,-0.94
2023-03-16T02:54:06.331Z,-0.91
2023-03-16T02:55:06.325Z,-0.99
2023-03-16T02:56:06.300Z,-0.97
2023-03-16T02:57:06.286Z,-0.96
2023-03-16T02:58:06.272Z,-0.91
2023-03-16T02:59:06.266Z,-0.97
2023-03-16T03:00:06.255Z,-1.08
2023-03-16T03:01:06.233Z,-1.11
2023-03-16T03:02:06.227Z,-1.17
2023-03-16T03:03:06.285Z,-1.19
2023-03-16T03:04:06.203Z,-1.15
2023-03-16T03:05:06.206Z,-1.08
2023-03-16T03:06:06.179Z,-1.04
2023-03-16T03:07:06.181Z,-1.02
2023-03-16T03:08:06.160Z,-1.02
2023-03-16T03:09:06.142Z,-0.99
2023-03-16T03:10:06.150Z,-0.93
2023-03-16T03:11:06.106Z,-0.93
2023-03-16T03:12:06.095Z,-0.94
2023-03-16T03:13:06.077Z,-1.02
2023-03-16T03:14:06.063Z,-1.08
2023-03-16T03:15:06.072Z,-1.19
2023-03-16T03:16:06.117Z,-1.15
2023-03-16T03:17:06.030Z,-1.20
2023-03-16T03:18:06.016Z,-1.20
2023-03-16T03:19:06.015Z,-1.26
2023-03-16T03:20:05.983Z,-1.25
2023-03-16T03:21:05.981Z,-1.25
2023-03-16T03:22:05.957Z,-1.25
2023-03-16T03:23:05.985Z,-1.26
2023-03-16T03:24:05.940Z,-1.25
2023-03-16T03:25:05.927Z,-1.27
2023-03-16T03:26:05.911Z,-1.25
2023-03-16T03:27:05.900Z,-1.20
2023-03-16T03:28:05.974Z,-1.22
2023-03-16T03:29:05.881Z,-1.19
2023-03-16T03:30:05.865Z,-1.19
2023-03-16T03:31:05.851Z,-1.20
2023-03-16T03:32:05.828Z,-1.17
2023-03-16T03:33:05.918Z,-1.20
2023-03-16T03:34:05.830Z,-1.19
2023-03-16T03:35:05.802Z,-1.27
2023-03-16T03:36:05.856Z,-1.25
2023-03-16T03:37:05.767Z,-1.20
2023-03-16T03:38:05.761Z,-1.22
2023-03-16T03:39:05.776Z,-1.19
2023-03-16T03:40:05.724Z,-1.19
2023-03-16T03:41:05.720Z,-1.22
2023-03-16T03:42:05.706Z,-1.17
2023-03-16T03:43:05.704Z,-1.22
2023-03-16T03:44:05.684Z,-1.22
2023-03-16T03:45:05.677Z,-1.25
2023-03-16T03:46:05.794Z,-1.22
2023-03-16T03:47:05.728Z,-1.25
2023-03-16T03:48:05.651Z,-1.23
2023-03-16T03:49:05.630Z,-1.23
2023-03-16T03:50:05.594Z,-1.25
2023-03-16T03:51:05.671Z,-1.23
2023-03-16T03:52:05.576Z,-1.20
2023-03-16T03:53:05.571Z,-1.25
2023-03-16T03:54:05.562Z,-1.29
2023-03-16T03:55:05.565Z,-1.25
2023-03-16T03:56:05.527Z,-1.27
2023-03-16T03:57:05.512Z,-1.30
2023-03-16T03:58:05.499Z,-1.38
2023-03-16T03:59:05.486Z,-1.32
2023-03-16T04:00:05.477Z,-1.26
2023-03-16T04:01:05.464Z,-1.33
2023-03-16T04:02:05.574Z,-1.30
2023-03-16T04:03:05.583Z,-1.35
2023-03-16T04:04:05.422Z,-1.29
2023-03-16T04:05:05.400Z,-1.29
2023-03-16T04:06:05.395Z,-1.35
2023-03-16T04:07:05.391Z,-1.44
2023-03-16T04:08:05.366Z,-1.47
2023-03-16T04:09:05.349Z,-1.40
2023-03-16T04:10:05.343Z,-1.41
2023-03-16T04:11:05.363Z,-1.40
2023-03-16T04:12:05.326Z,-1.27
2023-03-16T04:13:05.294Z,-1.27
2023-03-16T04:14:05.295Z,-1.26
2023-03-16T04:15:05.269Z,-1.23
2023-03-16T04:16:05.268Z,-1.27
2023-03-16T04:17:05.376Z,-1.23
2023-03-16T04:18:05.237Z,-1.23
2023-03-16T04:19:05.229Z,-1.26
2023-03-16T04:20:05.212Z,-1.35
2023-03-16T04:21:05.199Z,-1.29
2023-03-16T04:22:05.179Z,-1.37
2023-03-16T04:23:05.180Z,-1.33
2023-03-16T04:24:05.183Z,-1.38
2023-03-16T04:25:05.146Z,-1.37
2023-03-16T04:26:05.129Z,-1.37
2023-03-16T04:27:05.155Z,-1.43
2023-03-16T04:28:05.111Z,-1.50
2023-03-16T04:29:05.101Z,-1.50
2023-03-16T04:30:05.085Z,-1.50
2023-03-16T04:31:05.129Z,-1.43
2023-03-16T04:32:05.052Z,-1.44
2023-03-16T04:33:05.112Z,-1.48
2023-03-16T04:34:05.032Z,-1.43
2023-03-16T04:35:05.012Z,-1.46
2023-03-16T04:36:05.139Z,-1.47
2023-03-16T04:37:05.008Z,-1.53
2023-03-16T04:38:04.973Z,-1.61
2023-03-16T04:39:04.969Z,-1.68
2023-03-16T04:40:04.956Z,-1.65
2023-03-16T04:41:04.952Z,-1.62
2023-03-16T04:42:04.920Z,-1.58
2023-03-16T04:43:04.942Z,-1.66
2023-03-16T04:44:04.921Z,-1.64
2023-03-16T04:45:04.893Z,-1.64
2023-03-16T04:46:04.922Z,-1.68
2023-03-16T04:47:04.868Z,-1.64
2023-03-16T04:48:04.848Z,-1.65
2023-03-16T04:49:04.832Z,-1.71
2023-03-16T04:50:04.827Z,-1.72
2023-03-16T04:51:04.817Z,-1.76
2023-03-16T04:52:04.802Z,-1.79
2023-03-16T04:53:04.802Z,-1.71
2023-03-16T04:54:04.776Z,-1.71
2023-03-16T04:55:04.760Z,-1.65
2023-03-16T04:56:04.747Z,-1.65
2023-03-16T04:57:04.739Z,-1.65
2023-03-16T04:58:04.728Z,-1.61
2023-03-16T04:59:04.727Z,-1.59
2023-03-16T05:00:04.692Z,-1.56
2023-03-16T05:01:04.682Z,-1.59
2023-03-16T05:02:04.679Z,-1.59
2023-03-16T05:03:04.677Z,-1.64
2023-03-16T05:04:04.662Z,-1.66
2023-03-16T05:05:04.633Z,-1.64
2023-03-16T05:06:04.613Z,-1.68
2023-03-16T05:07:04.608Z,-1.61
2023-03-16T05:08:04.609Z,-1.59
2023-03-16T05:09:04.574Z,-1.58
2023-03-16T05:10:04.575Z,-1.59
2023-03-16T05:11:04.560Z,-1.59
2023-03-16T05:12:04.545Z,-1.61
2023-03-16T05:13:04.535Z,-1.65
2023-03-16T05:14:04.516Z,-1.65
2023-03-16T05:15:04.529Z,-1.69
2023-03-16T05:16:04.604Z,-1.76
2023-03-16T05:17:04.478Z,-1.71
2023-03-16T05:18:04.466Z,-1.72
2023-03-16T05:19:04.457Z,-1.72
2023-03-16T05:20:04.441Z,-1.68
2023-03-16T05:21:04.417Z,-1.62
2023-03-16T05:22:04.414Z,-1.56
2023-03-16T05:23:04.394Z,-1.59
2023-03-16T05:24:04.382Z,-1.64
2023-03-16T05:25:04.372Z,-1.65
2023-03-16T05:26:04.357Z,-1.62
2023-03-16T05:27:04.369Z,-1.68
2023-03-16T05:28:04.339Z,-1.59
2023-03-16T05:29:04.313Z,-1.62
2023-03-16T05:30:04.309Z,-1.62
2023-03-16T05:31:04.345Z,-1.69
2023-03-16T05:32:04.311Z,-1.66
2023-03-16T05:33:04.388Z,-1.76
2023-03-16T05:34:04.257Z,-1.74
2023-03-16T05:35:04.240Z,-1.82
2023-03-16T05:36:04.317Z,-1.76
2023-03-16T05:37:04.221Z,-1.80
2023-03-16T05:38:04.198Z,-1.86
2023-03-16T05:39:04.197Z,-1.87
2023-03-16T05:40:04.183Z,-1.87
2023-03-16T05:41:05.938Z,-1.84
2023-03-16T05:42:04.146Z,-1.74
2023-03-16T05:43:04.142Z,-1.72
2023-03-16T05:44:04.130Z,-1.71
2023-03-16T05:45:04.133Z,-1.72
2023-03-16T05:46:04.120Z,-1.71
2023-03-16T05:47:04.304Z,-1.74
2023-03-16T05:48:04.088Z,-1.71
2023-03-16T05:49:04.063Z,-1.69
2023-03-16T05:50:04.048Z,-1.68
2023-03-16T05:51:04.044Z,-1.56
2023-03-16T05:52:04.038Z,-1.59
2023-03-16T05:53:04.029Z,-1.48
2023-03-16T05:54:03.996Z,-1.48
2023-03-16T05:55:03.992Z,-1.41
2023-03-16T05:56:03.980Z,-1.47
2023-03-16T05:57:03.966Z,-1.50
2023-03-16T05:58:05.739Z,-1.46
2023-03-16T05:59:03.932Z,-1.43
2023-03-16T06:00:03.925Z,-1.40
2023-03-16T06:01:03.912Z,-1.40
2023-03-16T06:02:03.904Z,-1.38
2023-03-16T06:03:03.949Z,-1.40
2023-03-16T06:04:03.916Z,-1.35
2023-03-16T06:05:03.868Z,-1.35
2023-03-16T06:06:03.852Z,-1.37
2023-03-16T06:07:03.854Z,-1.32
2023-03-16T06:08:03.825Z,-1.35
2023-03-16T06:09:03.822Z,-1.23
2023-03-16T06:10:03.801Z,-1.27
2023-03-16T06:11:03.799Z,-1.22
2023-03-16T06:12:03.767Z,-1.20
2023-03-16T06:13:03.749Z,-1.14
2023-03-16T06:14:03.748Z,-1.09
2023-03-16T06:15:03.730Z,-1.11
2023-03-16T06:16:03.756Z,-1.14
2023-03-16T06:17:03.701Z,-1.11
2023-03-16T06:18:03.688Z,-1.17
2023-03-16T06:19:03.710Z,-1.14
2023-03-16T06:20:03.678Z,-1.12
2023-03-16T06:21:03.648Z,-1.20
2023-03-16T06:22:03.760Z,-1.14
2023-03-16T06:23:03.641Z,-1.15
2023-03-16T06:24:03.640Z,-1.05
2023-03-16T06:25:03.607Z,-1.01
2023-03-16T06:26:03.599Z,-0.96
2023-03-16T06:27:03.573Z,-0.99
2023-03-16T06:28:03.560Z,-0.90
2023-03-16T06:29:03.564Z,-0.85
2023-03-16T06:30:03.540Z,-0.77
2023-03-16T06:31:03.519Z,-0.74
2023-03-16T06:32:03.511Z,-0.78
2023-03-16T06:33:03.600Z,-0.56
2023-03-16T06:34:03.493Z,-0.29
2023-03-16T06:35:03.524Z,-0.03
2023-03-16T06:36:03.549Z,0.43
2023-03-16T06:37:03.445Z,0.95
2023-03-16T06:38:03.436Z,1.41
2023-03-16T06:39:03.428Z,1.97
2023-03-16T06:40:03.407Z,2.53
2023-03-16T06:41:03.400Z,3.11
2023-03-16T06:42:03.392Z,3.63
2023-03-16T06:43:03.376Z,4.04
2023-03-16T06:44:03.375Z,4.45
2023-03-16T06:45:03.346Z,5.32
2023-03-16T06:46:03.435Z,6.05
2023-03-16T06:47:03.326Z,6.79
2023-03-16T06:48:03.305Z,7.48
2023-03-16T06:49:03.291Z,8.19
2023-03-16T06:50:03.287Z,8.78
2023-03-16T06:51:03.324Z,9.22
2023-03-16T06:52:03.254Z,9.46
2023-03-16T06:53:03.240Z,9.62
2023-03-16T06:54:03.239Z,9.55
2023-03-16T06:55:03.225Z,9.92
2023-03-16T06:56:03.204Z,9.97
2023-03-16T06:57:03.200Z,10.22
2023-03-16T06:58:03.197Z,10.59
2023-03-16T06:59:03.181Z,10.69
2023-03-16T07:00:03.164Z,10.96
2023-03-16T07:01:03.218Z,11.33
2023-03-16T07:02:03.133Z,11.62
2023-03-16T07:03:03.123Z,11.75
2023-03-16T07:04:03.157Z,11.88
2023-03-16T07:05:03.078Z,12.03
2023-03-16T07:06:03.084Z,12.09
2023-03-16T07:07:03.115Z,12.13
2023-03-16T07:08:03.048Z,12.21
2023-03-16T07:09:03.036Z,12.24
2023-03-16T07:10:03.045Z,12.20
2023-03-16T07:11:03.017Z,11.94
2023-03-16T07:12:02.998Z,11.97
2023-03-16T07:13:02.981Z,11.90
2023-03-16T07:14:02.976Z,11.68
2023-03-16T07:15:02.966Z,11.47
2023-03-16T07:16:02.942Z,11.10
2023-03-16T07:17:03.024Z,11.27
2023-03-16T07:18:02.933Z,11.59
2023-03-16T07:19:02.940Z,12.07
2023-03-16T07:20:02.900Z,12.47
2023-03-16T07:21:02.881Z,12.68
2023-03-16T07:22:02.885Z,12.98
2023-03-16T07:23:02.915Z,13.12
2023-03-16T07:24:02.846Z,13.08
2023-03-16T07:25:02.842Z,13.11
2023-03-16T07:26:02.820Z,13.25
2023-03-16T07:27:02.806Z,13.19
2023-03-16T07:28:02.795Z,12.85
2023-03-16T07:29:02.783Z,12.35
2023-03-16T07:30:02.780Z,11.94
2023-03-16T07:31:04.329Z,11.51
2023-03-16T07:32:02.970Z,10.89
2023-03-16T07:33:02.796Z,10.40
2023-03-16T07:34:02.713Z,10.15
2023-03-16T07:35:02.705Z,9.83
2023-03-16T07:36:02.728Z,9.69
2023-03-16T07:37:02.674Z,9.59
2023-03-16T07:38:02.670Z,9.14
2023-03-16T07:39:02.674Z,8.52
2023-03-16T07:40:02.650Z,7.53
2023-03-16T07:41:02.630Z,6.57
2023-03-16T07:42:02.605Z,6.38
2023-03-16T07:43:02.597Z,6.41
2023-03-16T07:44:02.581Z,6.49
2023-03-16T07:45:02.582Z,6.17
2023-03-16T07:46:02.616Z,5.79
2023-03-16T07:47:02.547Z,5.83
2023-03-16T07:48:02.528Z,6.07
2023-03-16T07:49:02.534Z,6.07
2023-03-16T07:50:02.501Z,5.71
2023-03-16T07:51:02.492Z,5.41
2023-03-16T07:52:02.490Z,5.43
2023-03-16T07:53:02.467Z,5.50
2023-03-16T07:54:02.468Z,5.57
2023-03-16T07:55:02.487Z,5.43
2023-03-16T07:56:02.428Z,5.53
2023-03-16T07:57:02.422Z,5.47
2023-03-16T07:58:02.396Z,5.18
2023-03-16T07:59:02.401Z,5.14
2023-03-16T08:00:02.412Z,5.44
2023-03-16T08:01:02.361Z,5.87
2023-03-16T08:02:02.405Z,6.41
2023-03-16T08:03:02.375Z,6.60
2023-03-16T08:04:02.453Z,6.57
2023-03-16T08:05:02.315Z,6.84
2023-03-16T08:06:02.294Z,7.00
2023-03-16T08:07:02.437Z,7.38
2023-03-16T08:08:02.288Z,7.66
2023-03-16T08:09:02.264Z,8.00
2023-03-16T08:10:02.249Z,8.38
2023-03-16T08:11:02.257Z,8.58
2023-03-16T08:12:02.228Z,8.79
2023-03-16T08:13:02.384Z,9.14
2023-03-16T08:14:02.194Z,9.54
2023-03-16T08:15:02.234Z,9.82
2023-03-16T08:16:02.507Z,10.33
2023-03-16T08:17:02.195Z,10.79
2023-03-16T08:18:02.163Z,11.17
2023-03-16T08:19:02.168Z,11.63
2023-03-16T08:20:02.173Z,11.77
2023-03-16T08:21:02.139Z,11.80
2023-03-16T08:22:02.327Z,11.57
2023-03-16T08:23:02.106Z,11.22
2023-03-16T08:24:02.077Z,11.02
2023-03-16T08:25:02.072Z,10.90
2023-03-16T08:26:02.041Z,10.67
2023-03-16T08:27:02.059Z,10.63
2023-03-16T08:28:02.007Z,10.69
2023-03-16T08:29:02.040Z,10.57
2023-03-16T08:30:01.993Z,10.41
2023-03-16T08:31:02.075Z,10.22
2023-03-16T08:32:01.965Z,10.09
2023-03-16T08:33:02.027Z,10.01
2023-03-16T08:34:01.978Z,9.84
2023-03-16T08:35:01.924Z,9.79
2023-03-16T08:36:01.930Z,9.91
2023-03-16T08:37:01.938Z,10.10
2023-03-16T08:38:01.901Z,10.26
2023-03-16T08:39:06.972Z,10.17
2023-03-16T08:40:01.868Z,10.10
2023-03-16T08:41:01.860Z,10.09
2023-03-16T08:42:02.049Z,9.76
2023-03-16T08:43:01.864Z,9.73
2023-03-16T08:44:01.816Z,9.65
2023-03-16T08:45:01.810Z,9.37
2023-03-16T08:46:01.884Z,9.41
2023-03-16T08:47:01.775Z,9.76
2023-03-16T08:48:01.768Z,10.12
2023-03-16T08:49:01.748Z,10.16
2023-03-16T08:50:01.735Z,10.51
2023-03-16T08:51:01.724Z,10.57
2023-03-16T08:52:01.727Z,10.15
2023-03-16T08:53:01.706Z,9.47
2023-03-16T08:54:01.701Z,9.25
2023-03-16T08:55:03.742Z,9.13
2023-03-16T08:56:01.668Z,8.85
2023-03-16T08:57:01.645Z,8.71
2023-03-16T08:58:01.644Z,8.78
2023-03-16T08:59:01.760Z,8.85
2023-03-16T09:00:01.616Z,8.89
2023-03-16T09:01:01.602Z,8.73
2023-03-16T09:02:01.644Z,8.81
2023-03-16T09:03:01.575Z,9.06
2023-03-16T09:04:01.612Z,9.36
2023-03-16T09:05:01.565Z,9.44
2023-03-16T09:06:01.539Z,9.29
2023-03-16T09:07:09.077Z,9.25
2023-03-16T09:08:02.561Z,9.39
2023-03-16T09:09:01.521Z,9.79
2023-03-16T09:10:01.488Z,10.25
2023-03-16T09:11:01.469Z,10.56
2023-03-16T09:12:01.464Z,10.93
2023-03-16T09:13:01.463Z,11.37
2023-03-16T09:14:01.436Z,11.81
2023-03-16T09:15:01.442Z,11.99
2023-03-16T09:16:01.437Z,11.88
2023-03-16T09:17:01.401Z,11.87
2023-03-16T09:18:01.379Z,11.48
2023-03-16T09:19:01.380Z,11.29
2023-03-16T09:20:11.588Z,11.08
2023-03-16T09:21:02.370Z,10.64
2023-03-16T09:22:01.344Z,10.10
2023-03-16T09:23:01.318Z,9.59
2023-03-16T09:24:01.304Z,9.34
2023-03-16T09:25:01.291Z,9.37
2023-03-16T09:26:01.276Z,9.26
2023-03-16T09:27:01.306Z,9.13
2023-03-16T09:28:01.260Z,8.87
2023-03-16T09:29:01.240Z,8.82
2023-03-16T09:30:01.235Z,8.73
2023-03-16T09:31:01.276Z,8.38
2023-03-16T09:32:01.201Z,8.00
2023-03-16T09:33:01.351Z,8.05
2023-03-16T09:34:01.178Z,8.30
2023-03-16T09:35:01.170Z,8.37
2023-03-16T09:36:01.218Z,8.44
2023-03-16T09:37:01.367Z,8.46
2023-03-16T09:38:05.881Z,8.52
2023-03-16T09:39:01.109Z,9.21
2023-03-16T09:40:10.183Z,9.72
2023-03-16T09:41:02.154Z,10.17
2023-03-16T09:42:01.083Z,10.23
2023-03-16T09:43:01.064Z,9.87
2023-03-16T09:44:01.045Z,10.20
2023-03-16T09:45:01.055Z,10.57
2023-03-16T09:46:01.082Z,10.94
2023-03-16T09:47:01.060Z,11.07
2023-03-16T09:48:01.009Z,10.82
2023-03-16T09:49:00.985Z,10.51
2023-03-16T09:50:00.976Z,10.07
2023-03-16T09:51:01.045Z,9.66
2023-03-16T09:52:00.950Z,9.36
2023-03-16T09:53:00.945Z,9.11
2023-03-16T09:54:00.913Z,9.13
2023-03-16T09:55:01.110Z,9.00
2023-03-16T09:56:00.891Z,8.99
2023-03-16T09:57:00.898Z,9.11
2023-03-16T09:58:00.872Z,9.22
2023-03-16T09:59:00.849Z,9.34
2023-03-16T10:00:00.852Z,9.58
2023-03-16T10:01:00.878Z,9.74
2023-03-16T10:02:00.822Z,9.79
2023-03-16T10:03:00.824Z,9.56
2023-03-16T10:04:01.006Z,9.41
2023-03-16T10:05:00.791Z,9.36
2023-03-16T10:06:00.773Z,9.37
2023-03-16T10:07:00.753Z,9.34
2023-03-16T10:08:00.742Z,9.26
2023-03-16T10:09:00.735Z,9.16
2023-03-16T10:10:00.747Z,9.03
2023-03-16T10:11:00.709Z,9.06
2023-03-16T10:12:00.690Z,9.10
2023-03-16T10:13:00.686Z,9.13
2023-03-16T10:14:00.663Z,9.26
2023-03-16T10:15:00.700Z,9.51
2023-03-16T10:16:00.637Z,9.74
2023-03-16T10:17:00.623Z,9.80
2023-03-16T10:18:00.603Z,9.55
2023-03-16T10:19:00.622Z,9.54
2023-03-16T10:20:00.597Z,9.36
2023-03-16T10:21:00.575Z,9.29
2023-03-16T10:22:00.551Z,9.26
2023-03-16T10:23:00.564Z,9.16
2023-03-16T10:24:00.545Z,8.87
2023-03-16T10:25:00.533Z,9.00
2023-03-16T10:26:00.508Z,9.10
2023-03-16T10:27:00.549Z,8.94
2023-03-16T10:28:00.490Z,8.67
2023-03-16T10:29:00.471Z,8.61
2023-03-16T10:30:00.456Z,8.61
2023-03-16T10:31:00.435Z,8.63
2023-03-16T10:32:00.491Z,8.69
2023-03-16T10:33:00.510Z,8.73
2023-03-16T10:34:00.406Z,8.67
2023-03-16T10:35:00.415Z,8.48
2023-03-16T10:36:00.385Z,8.10
2023-03-16T10:37:00.370Z,8.16
2023-03-16T10:38:00.358Z,8.30
2023-03-16T10:39:00.326Z,8.37
2023-03-16T10:40:00.329Z,8.20
2023-03-16T10:41:00.313Z,8.13
2023-03-16T10:42:00.317Z,8.19
2023-03-16T10:43:00.289Z,8.19
2023-03-16T10:44:00.280Z,8.05
2023-03-16T10:45:01.942Z,8.05
2023-03-16T10:46:00.280Z,8.18
2023-03-16T10:47:00.297Z,8.34
2023-03-16T10:48:00.230Z,8.44
2023-03-16T10:49:00.446Z,8.42
2023-03-16T10:50:00.226Z,8.49
2023-03-16T10:51:00.244Z,8.51
2023-03-16T10:52:00.180Z,8.58
2023-03-16T10:53:00.162Z,8.51
2023-03-16T10:54:00.173Z,8.66
2023-03-16T10:55:00.148Z,8.74
2023-03-16T10:56:00.131Z,8.81
2023-03-16T10:57:00.115Z,8.67
2023-03-16T10:58:00.107Z,8.53
2023-03-16T10:59:00.113Z,8.51
2023-03-16T11:00:00.088Z,8.63
2023-03-16T11:01:00.177Z,8.78
2023-03-16T11:02:00.065Z,8.88
2023-03-16T11:03:00.046Z,9.06
2023-03-16T11:04:00.039Z,8.99
2023-03-16T11:05:00.084Z,8.78
2023-03-16T11:06:00.010Z,8.67
2023-03-16T11:07:00.105Z,8.69
2023-03-16T11:07:59.982Z,8.74
2023-03-16T11:08:59.967Z,8.63
2023-03-16T11:09:59.955Z,8.70
2023-03-16T11:10:59.934Z,8.82
2023-03-16T11:11:59.929Z,8.87
2023-03-16T11:13:02.053Z,8.92
2023-03-16T11:13:59.901Z,8.97
2023-03-16T11:14:59.888Z,8.81
2023-03-16T11:15:59.879Z,8.79
2023-03-16T11:16:59.988Z,8.67
2023-03-16T11:18:05.855Z,8.52
2023-03-16T11:18:59.847Z,8.58
2023-03-16T11:19:59.826Z,8.60
2023-03-16T11:20:59.813Z,8.66
2023-03-16T11:21:59.808Z,8.74
2023-03-16T11:22:59.813Z,8.88
2023-03-16T11:23:59.779Z,9.10
2023-03-16T11:24:59.770Z,9.21
2023-03-16T11:25:59.739Z,9.32
2023-03-16T11:26:59.738Z,9.46
2023-03-16T11:27:59.749Z,9.51
2023-03-16T11:28:59.714Z,9.59
2023-03-16T11:29:59.685Z,9.58
2023-03-16T11:30:59.716Z,9.44
2023-03-16T11:31:59.671Z,9.40
2023-03-16T11:32:59.724Z,9.41
2023-03-16T11:33:59.845Z,9.39
2023-03-16T11:34:59.628Z,9.43
2023-03-16T11:35:59.882Z,9.50
2023-03-16T11:36:59.629Z,9.50
2023-03-16T11:37:59.604Z,9.59
2023-03-16T11:38:59.615Z,9.55
2023-03-16T11:39:59.591Z,9.59
2023-03-16T11:40:59.563Z,9.66
2023-03-16T11:41:59.565Z,9.65
2023-03-16T11:42:59.543Z,9.72
2023-03-16T11:43:59.514Z,9.82
2023-03-16T11:44:59.498Z,9.94
2023-03-16T11:45:59.576Z,9.91
2023-03-16T11:46:59.486Z,9.68
2023-03-16T11:47:59.468Z,9.51
2023-03-16T11:48:59.450Z,9.47
2023-03-16T11:49:59.435Z,9.61
2023-03-16T11:50:59.433Z,9.48
2023-03-16T11:51:59.408Z,9.66
2023-03-16T11:52:59.397Z,9.83
2023-03-16T11:53:59.383Z,9.72
2023-03-16T11:54:59.432Z,9.77
2023-03-16T11:55:59.357Z,9.82
2023-03-16T11:56:59.356Z,9.82
2023-03-16T11:57:59.342Z,9.77
2023-03-16T11:58:59.317Z,9.84
2023-03-16T12:00:01.475Z,9.74
2023-03-16T12:00:59.297Z,9.77
2023-03-16T12:02:01.014Z,9.74
2023-03-16T12:02:59.316Z,9.74
2023-03-16T12:03:59.405Z,9.73
2023-03-16T12:04:59.242Z,9.77
2023-03-16T12:05:59.790Z,9.76
2023-03-16T12:06:59.217Z,9.76
2023-03-16T12:07:59.202Z,9.79
2023-03-16T12:08:59.199Z,9.79
2023-03-16T12:09:59.172Z,9.79
2023-03-16T12:10:59.188Z,9.86
2023-03-16T12:11:59.159Z,9.91
2023-03-16T12:12:59.132Z,9.97
2023-03-16T12:13:59.123Z,10.04
2023-03-16T12:14:59.110Z,10.16
2023-03-16T12:15:59.102Z,10.33
2023-03-16T12:17:01.245Z,10.31
2023-03-16T12:17:59.076Z,10.30
2023-03-16T12:18:59.059Z,10.41
2023-03-16T12:19:59.066Z,10.53
2023-03-16T12:20:59.034Z,10.57
2023-03-16T12:21:59.015Z,10.64
2023-03-16T12:22:59.003Z,10.71
2023-03-16T12:23:58.999Z,10.71
2023-03-16T12:24:58.988Z,10.64
2023-03-16T12:25:58.970Z,10.59
2023-03-16T12:26:58.992Z,10.40
2023-03-16T12:27:58.957Z,10.35
2023-03-16T12:28:58.928Z,10.28
2023-03-16T12:29:58.923Z,10.28
2023-03-16T12:30:58.901Z,10.34
2023-03-16T12:31:58.891Z,10.48
2023-03-16T12:32:58.916Z,10.56
2023-03-16T12:33:58.875Z,10.69
2023-03-16T12:34:58.849Z,10.76
2023-03-16T12:35:58.887Z,10.75
2023-03-16T12:36:58.845Z,10.69
2023-03-16T12:37:58.834Z,10.74
2023-03-16T12:38:58.815Z,10.84
2023-03-16T12:39:58.796Z,10.84
2023-03-16T12:40:58.778Z,10.87
2023-03-16T12:41:58.774Z,10.94
2023-03-16T12:42:58.779Z,11.02
2023-03-16T12:43:58.865Z,11.02
2023-03-16T12:44:58.721Z,11.02
2023-03-16T12:45:58.756Z,10.94
2023-03-16T12:46:58.694Z,11.10
2023-03-16T12:47:58.689Z,11.27
2023-03-16T12:48:58.677Z,11.40
2023-03-16T12:49:58.860Z,11.44
2023-03-16T12:50:58.640Z,11.44
2023-03-16T12:51:58.643Z,11.47
2023-03-16T12:52:58.627Z,11.54
2023-03-16T12:53:58.616Z,11.57
2023-03-16T12:54:58.592Z,11.51
2023-03-16T12:55:58.779Z,11.44
2023-03-16T12:56:58.577Z,11.22
2023-03-16T12:57:58.564Z,10.94
2023-03-16T12:58:58.567Z,10.93
2023-03-16T12:59:58.539Z,10.96
2023-03-16T13:00:58.633Z,11.04